Ji Run — VRAD3 — position and weather

sailwx.info

Track history (hours):
 
Tides and Currents Weather Stations Pressure Air Temp Water Temp Dewpoint Dewpoint Depression Visibility Wind Speed Wind Dir Waves Ship Positions

Ji Run

Last reported at 2017-Oct-20 02:30 UTC. Time now 2017-Oct-20 03:25 UTC.
Position N 34°39' E 135°24'.

Length 134 m; draft 7.6 m.

Type: Ship (hazmat cat D). MMSI: 477400900.

Date/timePositionNaut miles runAvg speedWind from/ knotsBaromVisibWave heightAir tempDewpointWater temp
2017-Oct-20 02:30N 34°39' E 135°24'0 0.0
2017-Oct-20 02:00N 34°39' E 135°24'0 0.0
2017-Oct-20 01:24N 34°39' E 135°24'0 0.0
2017-Oct-20 00:42N 34°39' E 135°24'0 0.0
2017-Oct-19 23:24N 34°39' E 135°24'0 0.2
2017-Oct-19 22:42N 34°39' E 135°24'1 2.7
2017-Oct-19 22:31N 34°38' E 135°23'1 0.5
2017-Oct-19 19:53N 34°37' E 135°22'0 0.0
2017-Oct-19 19:17N 34°37' E 135°22'0 0.0
2017-Oct-19 18:59N 34°37' E 135°22'1 2.3
2017-Oct-19 18:30N 34°37' E 135°21'510.3
2017-Oct-19 18:00N 34°36' E 135°15'713.2
2017-Oct-19 17:30N 34°35' E 135°07'  
2017-Oct-12 17:43N 24°28' E 118°37'2 7.3
2017-Oct-12 17:27N 24°27' E 118°36'3 7.3
2017-Oct-12 17:00N 24°25' E 118°33'4 7.8
2017-Oct-12 16:30N 24°22' E 118°30'4 7.8
2017-Oct-12 16:00N 24°20' E 118°26'5 9.6
2017-Oct-12 15:31N 24°20' E 118°21'611.8
2017-Oct-12 15:00N 24°19' E 118°15'611.7
2017-Oct-12 14:30N 24°22' E 118°09'714.1
2017-Oct-12 14:00N 24°26' E 118°03'510.1
2017-Oct-12 13:30N 24°31' E 118°05'0 0.5
2017-Oct-12 13:00N 24°31' E 118°05'0 0.0
2017-Oct-12 11:46N 24°31' E 118°05'0 0.0
2017-Oct-12 11:28N 24°31' E 118°05'0 0.0
2017-Oct-12 10:52N 24°31' E 118°05'0 0.0
2017-Oct-12 09:58N 24°31' E 118°05'0 0.0
2017-Oct-12 08:34N 24°31' E 118°05'0 0.0
2017-Oct-12 07:28N 24°31' E 118°05'0 0.0
2017-Oct-12 06:55N 24°31' E 118°05'0 0.0
2017-Oct-12 06:28N 24°31' E 118°05'0 0.0
2017-Oct-12 05:58N 24°31' E 118°05'0 0.0
2017-Oct-12 05:28N 24°31' E 118°05'0 0.0
2017-Oct-12 04:40N 24°31' E 118°05'0 0.0
2017-Oct-12 04:25N 24°31' E 118°05'0 0.0
2017-Oct-12 03:58N 24°31' E 118°05'0 0.0
2017-Oct-12 03:28N 24°31' E 118°05'0 0.0
2017-Oct-12 02:47N 24°31' E 118°05'1 2.6
2017-Oct-12 02:30N 24°31' E 118°05'5 9.5
2017-Oct-12 02:00N 24°26' E 118°03'611.4
2017-Oct-12 01:30N 24°22' E 118°08'4 7.1
2017-Oct-12 01:00N 24°20' E 118°11'1 2.8
2017-Oct-12 00:30N 24°20' E 118°13'4 7.7
2017-Oct-12 00:00N 24°19' E 118°17'612.0
2017-Oct-11 23:30N 24°18' E 118°23'612.4
2017-Oct-11 23:00N 24°21' E 118°29'713.5
2017-Oct-11 22:29N 24°25' E 118°36'  
Track history (hours):
 
Tides and Currents Weather Stations Pressure Air Temp Water Temp Dewpoint Dewpoint Depression Visibility Wind Speed Wind Dir Waves Ship Positions

Ji Run

Last reported at 2017-Oct-20 02:30 UTC. Time now 2017-Oct-20 03:25 UTC.
Position N 34°39' E 135°24'.

Length 134 m; draft 7.6 m.

Type: Ship (hazmat cat D). MMSI: 477400900.

Date/timePositionNaut miles runAvg speedWind from/ knotsBaromVisibWave heightAir tempDewpointWater temp
2017-Oct-20 02:30N 34°39' E 135°24'0 0.0
2017-Oct-20 02:00N 34°39' E 135°24'0 0.0
2017-Oct-20 01:24N 34°39' E 135°24'0 0.0
2017-Oct-20 00:42N 34°39' E 135°24'0 0.0
2017-Oct-19 23:24N 34°39' E 135°24'0 0.2
2017-Oct-19 22:42N 34°39' E 135°24'1 2.7
2017-Oct-19 22:31N 34°38' E 135°23'1 0.5
2017-Oct-19 19:53N 34°37' E 135°22'0 0.0
2017-Oct-19 19:17N 34°37' E 135°22'0 0.0
2017-Oct-19 18:59N 34°37' E 135°22'1 2.3
2017-Oct-19 18:30N 34°37' E 135°21'510.3
2017-Oct-19 18:00N 34°36' E 135°15'713.2
2017-Oct-19 17:30N 34°35' E 135°07'  
2017-Oct-12 17:43N 24°28' E 118°37'2 7.3
2017-Oct-12 17:27N 24°27' E 118°36'3 7.3
2017-Oct-12 17:00N 24°25' E 118°33'4 7.8
2017-Oct-12 16:30N 24°22' E 118°30'4 7.8
2017-Oct-12 16:00N 24°20' E 118°26'5 9.6
2017-Oct-12 15:31N 24°20' E 118°21'611.8
2017-Oct-12 15:00N 24°19' E 118°15'611.7
2017-Oct-12 14:30N 24°22' E 118°09'714.1
2017-Oct-12 14:00N 24°26' E 118°03'510.1
2017-Oct-12 13:30N 24°31' E 118°05'0 0.5
2017-Oct-12 13:00N 24°31' E 118°05'0 0.0
2017-Oct-12 11:46N 24°31' E 118°05'0 0.0
2017-Oct-12 11:28N 24°31' E 118°05'0 0.0
2017-Oct-12 10:52N 24°31' E 118°05'0 0.0
2017-Oct-12 09:58N 24°31' E 118°05'0 0.0
2017-Oct-12 08:34N 24°31' E 118°05'0 0.0
2017-Oct-12 07:28N 24°31' E 118°05'0 0.0
2017-Oct-12 06:55N 24°31' E 118°05'0 0.0
2017-Oct-12 06:28N 24°31' E 118°05'0 0.0
2017-Oct-12 05:58N 24°31' E 118°05'0 0.0
2017-Oct-12 05:28N 24°31' E 118°05'0 0.0
2017-Oct-12 04:40N 24°31' E 118°05'0 0.0
2017-Oct-12 04:25N 24°31' E 118°05'0 0.0
2017-Oct-12 03:58N 24°31' E 118°05'0 0.0
2017-Oct-12 03:28N 24°31' E 118°05'0 0.0
2017-Oct-12 02:47N 24°31' E 118°05'1 2.6
2017-Oct-12 02:30N 24°31' E 118°05'5 9.5
2017-Oct-12 02:00N 24°26' E 118°03'611.4
2017-Oct-12 01:30N 24°22' E 118°08'4 7.1
2017-Oct-12 01:00N 24°20' E 118°11'1 2.8
2017-Oct-12 00:30N 24°20' E 118°13'4 7.7
2017-Oct-12 00:00N 24°19' E 118°17'612.0
2017-Oct-11 23:30N 24°18' E 118°23'612.4
2017-Oct-11 23:00N 24°21' E 118°29'713.5
2017-Oct-11 22:29N 24°25' E 118°36'  

Dump ship's entire track history